Time;durP1;ratioP1;P1;durP2;ratioP2;P2;SDS_P1;SDS_P2;PMS_P1;PMS_P2;Temp;Humidity;BMP_temperature;BMP_pressure;BME280_temperature;BME280_humidity;BME280_pressure;Samples;Min_cycle;Max_cycle;Signal;HPM_P1;HPM_P2
2023/02/11 00:00:15;;;;;;;27.50;9.82;;;6.90;99.90;;;;;;6186925;23;20012;-73
2023/02/11 00:02:41;;;;;;;23.95;9.60;;;6.90;99.90;;;;;;6186887;23;20312;-74
2023/02/11 00:05:07;;;;;;;28.98;10.35;;;6.90;99.90;;;;;;6187352;23;20013;-74
2023/02/11 00:07:34;;;;;;;23.42;9.57;;;6.90;99.90;;;;;;6187181;23;20021;-74
2023/02/11 00:10:01;;;;;;;21.48;9.38;;;6.90;99.90;;;;;;6185399;23;20351;-74
2023/02/11 00:12:27;;;;;;;22.98;11.23;;;6.90;99.90;;;;;;6185336;23;20013;-73
2023/02/11 00:14:54;;;;;;;31.33;9.57;;;7.00;99.90;;;;;;6187671;23;20020;-74
2023/02/11 00:17:20;;;;;;;27.48;9.35;;;6.90;99.90;;;;;;6185360;23;20009;-74
2023/02/11 00:19:49;;;;;;;35.85;11.02;;;6.90;99.90;;;;;;6186910;23;20067;-73
2023/02/11 00:22:15;;;;;;;25.20;9.52;;;6.90;99.90;;;;;;6187218;23;20017;-74
2023/02/11 00:24:41;;;;;;;25.15;9.43;;;7.00;99.90;;;;;;6187149;23;20013;-73
2023/02/11 00:27:06;;;;;;;29.58;9.80;;;6.90;99.90;;;;;;6187019;23;20017;-74
2023/02/11 00:29:32;;;;;;;23.65;8.90;;;6.90;99.90;;;;;;6186623;23;20493;-74
2023/02/11 00:32:03;;;;;;;26.10;9.20;;;7.00;99.90;;;;;;6186991;23;20013;-74
2023/02/11 00:34:32;;;;;;;23.88;9.38;;;7.00;99.90;;;;;;6187168;23;20009;-74
2023/02/11 00:36:58;;;;;;;19.52;8.40;;;7.00;99.90;;;;;;6160295;23;20379;-74
2023/02/11 00:39:24;;;;;;;30.52;9.75;;;7.00;99.90;;;;;;6185097;23;20464;-74
2023/02/11 00:41:50;;;;;;;26.60;10.20;;;6.90;99.90;;;;;;6186951;23;20012;-74
2023/02/11 00:44:16;;;;;;;25.42;9.43;;;6.90;99.90;;;;;;6186867;23;20076;-73
2023/02/11 00:46:41;;;;;;;32.30;10.82;;;6.90;99.90;;;;;;6184922;23;20092;-73
2023/02/11 00:49:07;;;;;;;26.52;10.15;;;6.90;99.90;;;;;;6187289;23;20395;-74
2023/02/11 00:51:33;;;;;;;31.48;9.77;;;6.90;99.90;;;;;;6185051;23;20009;-73
2023/02/11 00:53:58;;;;;;;21.80;8.57;;;7.00;99.90;;;;;;6185046;23;20370;-73
2023/02/11 00:56:24;;;;;;;23.63;8.02;;;6.90;99.90;;;;;;6186420;23;20068;-74
2023/02/11 00:58:50;;;;;;;24.35;9.02;;;7.00;99.90;;;;;;6186735;23;20009;-73
2023/02/11 01:01:15;;;;;;;23.50;9.32;;;6.90;99.90;;;;;;6186782;23;20088;-74
2023/02/11 01:03:41;;;;;;;31.55;10.38;;;7.00;99.90;;;;;;6184916;23;20351;-73
2023/02/11 01:06:08;;;;;;;26.15;10.60;;;6.90;99.90;;;;;;6186792;23;20009;-74
2023/02/11 01:08:33;;;;;;;25.13;8.77;;;7.00;99.90;;;;;;6186221;23;20434;-74
2023/02/11 01:11:11;;;;;;;31.65;9.95;;;6.90;99.90;;;;;;6186738;23;20017;-74
2023/02/11 01:13:37;;;;;;;29.20;9.25;;;6.80;99.90;;;;;;6186381;23;20013;-74
2023/02/11 01:16:06;;;;;;;26.23;9.40;;;6.90;99.90;;;;;;6186235;23;20084;-73
2023/02/11 01:18:32;;;;;;;26.23;9.57;;;6.80;99.90;;;;;;6159996;23;20017;-73
2023/02/11 01:20:58;;;;;;;32.58;10.32;;;6.80;99.90;;;;;;6184884;23;20019;-73
2023/02/11 01:23:23;;;;;;;31.83;10.38;;;6.80;99.90;;;;;;6186592;23;20013;-74
2023/02/11 01:25:49;;;;;;;30.05;8.88;;;6.80;99.90;;;;;;6184714;23;20023;-74
2023/02/11 01:28:18;;;;;;;24.67;8.73;;;6.90;99.90;;;;;;6185813;23;20017;-73
2023/02/11 01:30:43;;;;;;;24.67;8.90;;;6.80;99.90;;;;;;6187288;23;20028;-74
2023/02/11 01:33:09;;;;;;;27.88;10.80;;;6.80;99.90;;;;;;6186535;23;20013;-74
2023/02/11 01:35:34;;;;;;;25.77;10.05;;;6.80;99.90;;;;;;6186812;23;20088;-74
2023/02/11 01:38:00;;;;;;;31.77;10.13;;;6.90;99.90;;;;;;6184572;23;20024;-73
2023/02/11 01:40:26;;;;;;;23.42;8.95;;;6.90;99.90;;;;;;6186047;23;20064;-73
2023/02/11 01:42:51;;;;;;;30.83;10.88;;;6.80;99.90;;;;;;6184578;23;20024;-73
2023/02/11 01:45:45;;;;;;;25.63;9.90;;;7.00;99.90;;;;;;6186484;23;20013;-74
2023/02/11 01:48:23;;;;;;;30.60;10.48;;;6.90;99.90;;;;;;6184503;23;20021;-74
2023/02/11 01:50:53;;;;;;;29.42;11.05;;;6.90;99.90;;;;;;6184778;23;20387;-73
2023/02/11 01:58:52;;;;;;;30.17;10.85;;;6.80;99.90;;;;;;6186482;23;20088;-73
2023/02/11 02:01:22;;;;;;;24.55;10.05;;;6.80;99.90;;;;;;6186391;23;20044;-74
2023/02/11 02:03:51;;;;;;;27.63;10.40;;;6.70;99.90;;;;;;6186446;23;20020;-74
2023/02/11 02:06:34;;;;;;;26.48;11.45;;;6.70;99.90;;;;;;6184636;23;20023;-74
2023/02/11 02:09:08;;;;;;;31.48;11.18;;;6.70;99.90;;;;;;6186450;23;20009;-74
2023/02/11 02:11:34;;;;;;;28.65;10.70;;;6.80;99.90;;;;;;6184472;23;20009;-74
2023/02/11 02:14:00;;;;;;;30.00;11.20;;;6.70;99.90;;;;;;6159704;23;20018;-74
2023/02/11 02:16:32;;;;;;;30.95;12.05;;;6.70;99.90;;;;;;6186305;23;20031;-74
2023/02/11 02:19:28;;;;;;;24.52;11.05;;;6.80;99.90;;;;;;6184474;23;20017;-73
2023/02/11 02:22:16;;;;;;;24.45;10.63;;;6.70;99.90;;;;;;6184455;23;20092;-74
2023/02/11 02:24:49;;;;;;;31.77;11.85;;;6.70;99.90;;;;;;6186283;23;20063;-74
2023/02/11 02:27:17;;;;;;;30.75;12.80;;;6.80;99.90;;;;;;6186198;23;20017;-73
2023/02/11 02:29:52;;;;;;;30.00;12.70;;;6.70;99.90;;;;;;6185665;23;20454;-74
2023/02/11 02:32:42;;;;;;;32.58;12.57;;;6.80;99.90;;;;;;6185907;23;20052;-73
2023/02/11 02:35:29;;;;;;;32.78;14.05;;;6.80;99.90;;;;;;6184478;23;20450;-73
2023/02/11 02:38:05;;;;;;;35.22;14.48;;;6.90;99.90;;;;;;6184731;23;20017;-74
2023/02/11 02:40:40;;;;;;;35.47;13.88;;;6.90;99.90;;;;;;6187119;23;20063;-73
2023/02/11 02:43:08;;;;;;;34.63;14.30;;;6.90;99.90;;;;;;6186368;23;20005;-74
2023/02/11 02:45:34;;;;;;;36.10;13.85;;;6.80;99.90;;;;;;6186324;23;20012;-74
2023/02/11 02:48:00;;;;;;;32.47;13.85;;;6.90;99.90;;;;;;6188154;23;20013;-74
2023/02/11 02:50:30;;;;;;;36.13;15.63;;;6.80;99.90;;;;;;6188216;23;20370;-74
2023/02/11 02:53:18;;;;;;;;;;;6.80;99.90;;;;;;6188777;23;20069;-74
2023/02/11 02:56:12;;;;;;;29.83;13.90;;;6.80;99.90;;;;;;6187762;23;19971;-73
2023/02/11 02:59:11;;;;;;;34.22;14.77;;;6.90;99.90;;;;;;6188732;23;20024;-74
2023/02/11 03:02:06;;;;;;;37.63;14.68;;;6.90;99.90;;;;;;6187642;23;20055;-74
2023/02/11 03:04:40;;;;;;;33.33;15.40;;;6.80;99.90;;;;;;6188130;23;20024;-74
2023/02/11 03:07:28;;;;;;;34.85;14.57;;;6.90;99.90;;;;;;6187844;23;20013;-74
2023/02/11 03:10:06;;;;;;;32.85;15.02;;;6.90;99.90;;;;;;6187887;23;20039;-74
2023/02/11 03:12:33;;;;;;;29.98;15.00;;;6.80;99.90;;;;;;6186005;23;20017;-73
2023/02/11 03:15:02;;;;;;;37.25;17.83;;;7.00;99.90;;;;;;6187443;23;20013;-73
2023/02/11 03:17:28;;;;;;;38.80;16.90;;;6.90;99.90;;;;;;6161086;23;20067;-74
2023/02/11 03:19:57;;;;;;;30.98;16.13;;;7.00;99.90;;;;;;6185928;23;20028;-73
2023/02/11 03:22:46;;;;;;;38.65;17.38;;;6.90;99.90;;;;;;6185699;23;20016;-73
2023/02/11 03:25:12;;;;;;;35.15;17.80;;;7.00;99.90;;;;;;6161054;23;20040;-73
2023/02/11 03:27:51;;;;;;;39.70;18.42;;;7.00;99.90;;;;;;6187625;23;20009;-74
2023/02/11 03:30:31;;;;;;;43.53;18.25;;;7.00;99.90;;;;;;6187195;23;20013;-74
2023/02/11 03:33:11;;;;;;;37.40;20.20;;;7.10;99.90;;;;;;6187725;23;20013;-74
2023/02/11 03:36:01;;;;;;;42.22;18.90;;;7.10;99.90;;;;;;6185982;23;20023;-74
2023/02/11 03:38:35;;;;;;;39.90;19.40;;;7.10;99.90;;;;;;6187967;23;20017;-73
2023/02/11 03:41:03;;;;;;;40.67;20.38;;;7.10;99.90;;;;;;6187569;23;20084;-74
2023/02/11 03:43:41;;;;;;;40.33;21.30;;;7.10;99.90;;;;;;6187486;23;20338;-74
2023/02/11 03:46:10;;;;;;;39.60;21.17;;;7.10;99.90;;;;;;6187482;23;20009;-74
2023/02/11 03:48:40;;;;;;;40.40;20.25;;;7.20;99.90;;;;;;6186964;23;20016;-74
2023/02/11 03:51:09;;;;;;;38.35;21.75;;;7.10;99.90;;;;;;6187453;23;20060;-74
2023/02/11 03:53:37;;;;;;;41.40;19.50;;;7.20;99.90;;;;;;6186907;23;20016;-74
2023/02/11 03:56:08;;;;;;;40.95;19.83;;;7.20;99.90;;;;;;6187351;23;20109;-74
2023/02/11 03:58:33;;;;;;;39.50;20.38;;;7.20;99.90;;;;;;6185524;23;20063;-73
2023/02/11 04:01:01;;;;;;;33.63;19.83;;;7.10;99.90;;;;;;6160610;23;20012;-74
2023/02/11 04:03:27;;;;;;;37.05;19.33;;;7.10;99.90;;;;;;6160608;23;20012;-73
2023/02/11 04:05:53;;;;;;;39.95;19.98;;;7.20;99.90;;;;;;6185591;23;20088;-74
2023/02/11 04:08:19;;;;;;;37.83;19.55;;;7.20;99.90;;;;;;6185361;23;20017;-73
2023/02/11 04:10:45;;;;;;;40.70;18.85;;;7.20;99.90;;;;;;6187183;23;20331;-74
2023/02/11 04:13:10;;;;;;;36.78;19.98;;;7.00;99.90;;;;;;6187495;23;20071;-73
2023/02/11 04:15:36;;;;;;;43.92;20.42;;;7.10;99.90;;;;;;6187283;23;20013;-73
2023/02/11 04:18:03;;;;;;;38.05;19.60;;;7.10;99.90;;;;;;6187178;23;20089;-74
2023/02/11 04:20:29;;;;;;;41.83;21.50;;;7.10;99.90;;;;;;6187375;23;20017;-74
2023/02/11 04:22:54;;;;;;;39.33;21.20;;;7.00;99.90;;;;;;6186659;23;20450;-73
2023/02/11 04:25:20;;;;;;;39.95;20.85;;;7.20;99.90;;;;;;6187002;23;20096;-73
2023/02/11 04:27:45;;;;;;;40.45;21.60;;;7.20;99.90;;;;;;6185031;23;20017;-74
2023/02/11 04:30:12;;;;;;;38.80;20.77;;;7.20;99.90;;;;;;6184948;23;20350;-73
2023/02/11 04:32:37;;;;;;;41.25;20.45;;;7.00;99.90;;;;;;6186971;23;20019;-74
2023/02/11 04:35:03;;;;;;;36.65;21.45;;;7.10;99.90;;;;;;6185217;23;20044;-73
2023/02/11 04:37:29;;;;;;;44.25;23.60;;;7.10;99.90;;;;;;6185177;23;20472;-74
2023/02/11 04:39:55;;;;;;;40.35;20.48;;;7.00;99.90;;;;;;6184999;23;20092;-73
2023/02/11 04:42:20;;;;;;;38.08;21.58;;;7.00;99.90;;;;;;6185004;23;20021;-73
2023/02/11 04:44:46;;;;;;;44.67;23.45;;;7.10;99.90;;;;;;6185107;23;20051;-74
2023/02/11 04:47:14;;;;;;;52.70;22.42;;;7.10;99.90;;;;;;6186723;23;20036;-73
2023/02/11 04:49:39;;;;;;;45.78;23.35;;;7.10;99.90;;;;;;6186923;23;20024;-74
2023/02/11 04:52:05;;;;;;;39.97;21.08;;;7.20;99.90;;;;;;6186915;23;20013;-74
2023/02/11 04:54:31;;;;;;;43.00;22.92;;;7.10;99.90;;;;;;6186942;23;20005;-73
2023/02/11 04:56:57;;;;;;;38.03;23.23;;;7.20;99.90;;;;;;6186811;23;20012;-74
2023/02/11 04:59:22;;;;;;;45.17;22.77;;;7.10;99.90;;;;;;6186731;23;20456;-74
2023/02/11 05:01:48;;;;;;;48.53;23.55;;;7.20;99.90;;;;;;6160235;23;20013;-74
2023/02/11 05:04:14;;;;;;;42.83;22.83;;;7.20;99.90;;;;;;6184928;23;20021;-74
2023/02/11 05:06:40;;;;;;;48.60;23.50;;;7.20;99.90;;;;;;6184957;23;20049;-74
2023/02/11 05:09:06;;;;;;;43.42;23.73;;;7.30;99.90;;;;;;6184847;23;20468;-74
2023/02/11 05:11:32;;;;;;;39.65;22.13;;;7.20;99.90;;;;;;6184841;23;20330;-73
2023/02/11 05:13:57;;;;;;;41.00;23.17;;;7.20;99.90;;;;;;6186600;23;20456;-74
2023/02/11 05:16:23;;;;;;;43.05;23.63;;;7.20;99.90;;;;;;6184818;23;20017;-73
2023/02/11 05:18:49;;;;;;;48.72;23.02;;;7.30;99.90;;;;;;6185264;23;20044;-74
2023/02/11 05:21:17;;;;;;;43.33;23.45;;;7.20;99.90;;;;;;6186926;23;20013;-74
2023/02/11 05:23:43;;;;;;;43.78;23.52;;;7.20;99.90;;;;;;6184910;23;20096;-74
2023/02/11 05:26:09;;;;;;;46.22;23.88;;;7.20;99.90;;;;;;6186700;23;20020;-74
2023/02/11 05:28:35;;;;;;;42.15;23.45;;;7.20;99.90;;;;;;6186305;23;20064;-74
2023/02/11 05:31:01;;;;;;;45.92;22.58;;;7.30;99.90;;;;;;6184819;23;20016;-74
2023/02/11 05:33:27;;;;;;;42.50;25.35;;;7.20;99.90;;;;;;6185272;23;20011;-74
2023/02/11 05:36:01;;;;;;;45.10;24.88;;;7.10;99.90;;;;;;6160198;23;20009;-74
2023/02/11 05:38:27;;;;;;;43.17;23.35;;;7.10;99.90;;;;;;6184824;23;20017;-74
2023/02/11 05:40:53;;;;;;;46.88;23.75;;;7.10;99.90;;;;;;6184863;23;20013;-73
2023/02/11 05:43:18;;;;;;;45.22;24.92;;;7.10;99.90;;;;;;6186709;23;20005;-74
2023/02/11 05:45:44;;;;;;;48.53;25.42;;;7.20;99.90;;;;;;6184775;23;20020;-73
2023/02/11 05:48:10;;;;;;;47.25;24.25;;;7.00;99.90;;;;;;6184535;23;20017;-73
2023/02/11 05:50:35;;;;;;;47.38;24.50;;;7.00;99.90;;;;;;6185243;23;20330;-73
2023/02/11 05:53:01;;;;;;;50.85;26.48;;;7.00;99.90;;;;;;6186192;23;20374;-74
2023/02/11 05:55:26;;;;;;;47.40;24.00;;;7.00;99.90;;;;;;6186092;23;20013;-74
2023/02/11 05:57:52;;;;;;;45.08;25.67;;;7.00;99.90;;;;;;6186458;23;20017;-74
2023/02/11 06:00:18;;;;;;;47.47;25.45;;;7.00;99.90;;;;;;6186011;23;20009;-73
2023/02/11 06:02:43;;;;;;;50.03;24.17;;;7.10;99.90;;;;;;6186564;23;20084;-74
2023/02/11 06:05:09;;;;;;;46.38;24.95;;;6.90;99.90;;;;;;6186568;23;20013;-73
2023/02/11 06:07:35;;;;;;;51.85;26.15;;;7.00;99.90;;;;;;6184492;23;20374;-73
2023/02/11 06:10:00;;;;;;;48.08;24.95;;;6.90;99.90;;;;;;6184458;23;20013;-74
2023/02/11 06:12:26;;;;;;;48.88;25.35;;;6.90;99.90;;;;;;6186319;23;20016;-74
2023/02/11 06:14:52;;;;;;;53.55;26.40;;;7.00;99.90;;;;;;6187515;23;20010;-74
2023/02/11 06:17:18;;;;;;;57.13;26.58;;;6.90;99.90;;;;;;6188281;23;20084;-74
2023/02/11 06:19:43;;;;;;;55.75;26.65;;;6.90;99.90;;;;;;6186574;23;20044;-74
2023/02/11 06:22:09;;;;;;;54.28;28.20;;;6.90;99.90;;;;;;6188424;23;20020;-74
2023/02/11 06:24:35;;;;;;;54.28;26.70;;;6.70;99.90;;;;;;6188283;23;20322;-74
2023/02/11 06:27:03;;;;;;;50.42;26.02;;;6.80;99.90;;;;;;6161637;23;20013;-74
2023/02/11 06:29:29;;;;;;;56.95;28.63;;;6.90;99.90;;;;;;6186385;23;20020;-74
2023/02/11 06:31:55;;;;;;;54.95;27.30;;;6.90;99.90;;;;;;6186482;23;20032;-74
2023/02/11 06:34:21;;;;;;;54.85;28.05;;;6.80;99.90;;;;;;6161536;23;20088;-73
2023/02/11 06:36:46;;;;;;;57.90;29.50;;;6.90;99.90;;;;;;6186952;23;20009;-74
2023/02/11 06:39:12;;;;;;;54.70;28.13;;;7.00;99.90;;;;;;6188263;23;20017;-74
2023/02/11 06:41:38;;;;;;;56.20;28.08;;;7.00;99.90;;;;;;6186440;23;20071;-74
2023/02/11 06:44:04;;;;;;;56.55;29.02;;;6.90;99.90;;;;;;6186382;23;20021;-74
2023/02/11 06:46:30;;;;;;;65.07;30.38;;;7.00;99.90;;;;;;6186322;23;20037;-74
2023/02/11 06:48:56;;;;;;;58.42;27.60;;;6.90;99.90;;;;;;6187745;23;20017;-74
2023/02/11 06:51:21;;;;;;;53.40;28.40;;;6.90;99.90;;;;;;6186736;23;20013;-74
2023/02/11 06:53:47;;;;;;;57.55;28.15;;;6.80;99.90;;;;;;6186173;23;20013;-74
2023/02/11 06:56:19;;;;;;;56.28;27.52;;;6.80;99.90;;;;;;6186188;23;20476;-72
2023/02/11 06:58:46;;;;;;;56.78;28.95;;;6.80;99.90;;;;;;6186065;23;20020;-73
2023/02/11 07:01:14;;;;;;;56.65;30.45;;;6.80;99.90;;;;;;6187879;23;20017;-73
2023/02/11 07:03:45;;;;;;;58.35;28.25;;;6.80;99.90;;;;;;6185986;23;20017;-74
2023/02/11 07:06:17;;;;;;;55.25;29.67;;;7.00;99.90;;;;;;6187745;23;20009;-73
2023/02/11 07:08:44;;;;;;;58.88;29.95;;;7.00;99.90;;;;;;6185858;23;20342;-73
2023/02/11 07:11:16;;;;;;;59.72;31.02;;;6.90;99.90;;;;;;6185967;23;20017;-73
2023/02/11 07:13:42;;;;;;;61.58;31.23;;;6.90;99.90;;;;;;6185952;23;20024;-73
2023/02/11 07:16:10;;;;;;;62.08;31.98;;;6.80;99.90;;;;;;6185824;23;20009;-72
2023/02/11 07:18:35;;;;;;;74.38;33.33;;;6.90;99.90;;;;;;6187803;23;20017;-72
2023/02/11 07:21:09;;;;;;;66.75;32.55;;;7.00;99.90;;;;;;6187836;23;20010;-73
2023/02/11 07:23:35;;;;;;;68.63;32.20;;;7.00;99.90;;;;;;6187629;23;20088;-71
2023/02/11 07:26:13;;;;;;;65.18;32.75;;;7.10;99.90;;;;;;6187235;23;20013;-70
2023/02/11 07:28:40;;;;;;;59.58;32.15;;;7.10;99.90;;;;;;6187088;23;20016;-72
2023/02/11 07:31:08;;;;;;;67.15;33.05;;;7.10;99.90;;;;;;6185748;23;20049;-71
2023/02/11 07:33:35;;;;;;;65.10;33.53;;;7.00;99.90;;;;;;6187455;23;20005;-72
2023/02/11 07:36:02;;;;;;;62.72;33.22;;;7.10;99.90;;;;;;6185815;23;20024;-72
2023/02/11 07:38:28;;;;;;;58.55;32.25;;;7.10;99.90;;;;;;6187126;23;20442;-72
2023/02/11 07:40:54;;;;;;;58.22;31.50;;;7.10;99.90;;;;;;6185808;23;20035;-72
2023/02/11 07:43:19;;;;;;;58.13;31.33;;;7.10;99.90;;;;;;6160856;23;20008;-72
2023/02/11 07:45:45;;;;;;;64.75;34.15;;;7.10;99.90;;;;;;6160864;23;20005;-72
2023/02/11 07:48:10;;;;;;;62.75;32.35;;;7.10;99.90;;;;;;6186982;23;20316;-72
2023/02/11 07:50:36;;;;;;;59.65;32.00;;;7.20;99.90;;;;;;6185681;23;20017;-72
2023/02/11 07:53:02;;;;;;;67.32;32.25;;;7.20;99.90;;;;;;6185573;23;20023;-71
2023/02/11 07:55:28;;;;;;;58.65;32.13;;;7.10;99.90;;;;;;6187250;23;20020;-72
2023/02/11 07:57:53;;;;;;;64.43;33.65;;;7.30;99.90;;;;;;6160683;23;20020;-71
2023/02/11 08:00:19;;;;;;;59.85;32.20;;;7.20;99.90;;;;;;6185386;23;20021;-71
2023/02/11 08:02:45;;;;;;;60.10;31.88;;;7.30;99.90;;;;;;6185411;23;20024;-72
2023/02/11 08:05:10;;;;;;;60.40;28.73;;;7.40;99.90;;;;;;6185674;23;20020;-72
2023/02/11 08:07:36;;;;;;;57.53;29.70;;;7.20;99.90;;;;;;6187120;23;20450;-73
2023/02/11 08:10:02;;;;;;;54.95;30.27;;;7.20;99.90;;;;;;6185376;23;20016;-72
2023/02/11 08:12:28;;;;;;;48.67;28.15;;;7.20;99.90;;;;;;6187185;23;20013;-72
2023/02/11 08:14:55;;;;;;;55.67;29.42;;;7.30;99.90;;;;;;6160642;23;20019;-72
2023/02/11 08:17:20;;;;;;;54.75;28.55;;;7.30;99.90;;;;;;6185737;23;20017;-71
2023/02/11 08:19:46;;;;;;;53.53;28.85;;;7.40;99.90;;;;;;6185320;23;20012;-72
2023/02/11 08:22:12;;;;;;;48.92;27.52;;;7.40;99.90;;;;;;6185533;23;20017;-72
2023/02/11 08:24:38;;;;;;;51.58;28.45;;;7.50;99.90;;;;;;6185245;23;20013;-71
2023/02/11 08:27:03;;;;;;;49.70;26.30;;;7.50;99.90;;;;;;6185267;23;20024;-71
2023/02/11 08:29:29;;;;;;;51.13;27.98;;;7.40;99.90;;;;;;6185203;23;20477;-71
2023/02/11 08:31:55;;;;;;;51.78;28.35;;;7.50;99.90;;;;;;6185169;23;20028;-71
2023/02/11 08:34:20;;;;;;;47.75;25.95;;;7.50;99.90;;;;;;6160324;23;20009;-73
2023/02/11 08:36:47;;;;;;;43.97;25.38;;;7.60;99.90;;;;;;6185176;23;20044;-70
2023/02/11 08:39:18;;;;;;;44.60;25.58;;;7.60;99.90;;;;;;6184854;23;20370;-70
2023/02/11 08:41:45;;;;;;;43.60;24.67;;;7.70;99.90;;;;;;6184953;23;20013;-70
2023/02/11 08:44:11;;;;;;;41.67;24.42;;;7.60;99.90;;;;;;6160350;23;20021;-70
2023/02/11 08:46:37;;;;;;;38.63;23.30;;;7.80;99.90;;;;;;6186813;23;20009;-70
2023/02/11 08:49:02;;;;;;;41.20;25.02;;;7.80;99.90;;;;;;6186878;23;20045;-69
2023/02/11 08:51:30;;;;;;;37.70;23.00;;;7.80;99.90;;;;;;6185619;23;20013;-70
2023/02/11 08:53:57;;;;;;;45.22;24.58;;;7.90;99.90;;;;;;6186850;23;20338;-70
2023/02/11 08:56:23;;;;;;;44.17;25.05;;;7.80;99.90;;;;;;6184999;23;20013;-70
2023/02/11 08:58:50;;;;;;;42.03;23.95;;;7.70;99.90;;;;;;6186409;23;20013;-70
2023/02/11 09:01:25;;;;;;;41.50;22.80;;;7.80;99.90;;;;;;6186859;23;20017;-73
2023/02/11 09:03:51;;;;;;;40.97;23.73;;;7.80;99.90;;;;;;6160100;23;20017;-72
2023/02/11 09:06:17;;;;;;;42.05;25.15;;;7.80;99.90;;;;;;6186879;23;20009;-72
2023/02/11 09:08:45;;;;;;;35.95;22.38;;;7.90;99.90;;;;;;6186231;23;20510;-72
2023/02/11 09:11:11;;;;;;;41.97;22.88;;;8.00;99.90;;;;;;6184873;23;20047;-71
2023/02/11 09:13:39;;;;;;;42.33;21.48;;;8.00;99.90;;;;;;6184833;23;20071;-72
2023/02/11 09:16:05;;;;;;;40.53;23.70;;;7.90;99.90;;;;;;6186629;23;20017;-71
2023/02/11 09:18:31;;;;;;;38.83;21.13;;;7.90;99.90;;;;;;6186224;23;20100;-72
2023/02/11 09:21:08;;;;;;;33.92;20.20;;;8.00;99.90;;;;;;6186319;23;20009;-74
2023/02/11 09:23:34;;;;;;;35.30;21.77;;;8.00;99.90;;;;;;6159833;23;20063;-73
2023/02/11 09:26:08;;;;;;;37.28;21.70;;;8.10;99.90;;;;;;6184761;23;20067;-72
2023/02/11 09:28:34;;;;;;;33.33;21.27;;;8.10;99.90;;;;;;6185838;23;20469;-73
2023/02/11 09:31:08;;;;;;;40.45;21.70;;;8.20;99.90;;;;;;6184846;23;20059;-73
2023/02/11 09:33:35;;;;;;;32.80;21.67;;;8.10;99.90;;;;;;6184612;23;20025;-72
2023/02/11 09:36:02;;;;;;;35.17;21.10;;;8.20;99.90;;;;;;6186755;23;20084;-73
2023/02/11 09:38:28;;;;;;;40.92;21.65;;;8.10;99.90;;;;;;6184733;23;20406;-73
2023/02/11 09:40:54;;;;;;;30.52;19.75;;;8.30;99.90;;;;;;6184686;23;20017;-73
2023/02/11 09:43:22;;;;;;;32.17;19.92;;;8.20;99.90;;;;;;6159825;23;20374;-70
2023/02/11 09:45:49;;;;;;;39.65;22.40;;;8.30;99.90;;;;;;6159993;23;20009;-70
2023/02/11 09:48:20;;;;;;;32.17;21.52;;;8.20;99.90;;;;;;6184613;23;20048;-70
2023/02/11 09:50:48;;;;;;;34.30;20.48;;;8.30;99.90;;;;;;6185912;23;20017;-72
2023/02/11 09:53:24;;;;;;;34.33;20.45;;;8.20;99.90;;;;;;6186643;23;20102;-73
2023/02/11 09:55:59;;;;;;;27.83;17.67;;;8.30;99.90;;;;;;6186618;23;20009;-71
2023/02/11 09:58:34;;;;;;;31.50;18.25;;;8.40;99.90;;;;;;6186632;23;20021;-72
2023/02/11 10:01:11;;;;;;;31.80;17.75;;;8.40;99.90;;;;;;6186621;23;20013;-72
2023/02/11 10:03:47;;;;;;;34.78;18.67;;;8.50;99.90;;;;;;6186918;23;20042;-71
2023/02/11 10:06:18;;;;;;;29.40;17.92;;;8.50;99.90;;;;;;6186728;23;20017;-71
2023/02/11 10:08:47;;;;;;;29.30;18.42;;;8.50;99.90;;;;;;6186409;23;20017;-71
2023/02/11 10:11:25;;;;;;;27.05;17.17;;;8.60;99.90;;;;;;6161834;23;20021;-71
2023/02/11 10:14:03;;;;;;;29.52;17.60;;;8.50;99.90;;;;;;6186696;23;20020;-71
2023/02/11 10:16:46;;;;;;;28.83;17.08;;;8.60;99.90;;;;;;6186719;23;20017;-72
2023/02/11 10:19:30;;;;;;;37.78;18.90;;;8.70;99.90;;;;;;6186629;23;20013;-71
2023/02/11 10:22:09;;;;;;;28.35;16.95;;;8.70;99.90;;;;;;6161965;23;20024;-73
2023/02/11 10:24:35;;;;;;;29.10;16.27;;;8.80;99.90;;;;;;6188426;23;20020;-72
2023/02/11 10:27:13;;;;;;;28.60;16.00;;;8.70;99.90;;;;;;6188337;23;20059;-70
2023/02/11 10:29:52;;;;;;;27.65;16.55;;;8.70;99.90;;;;;;6186367;23;20013;-72
2023/02/11 10:32:41;;;;;;;27.02;16.95;;;8.70;99.90;;;;;;6186492;23;20017;-72
2023/02/11 10:35:17;;;;;;;32.90;15.48;;;8.80;99.90;;;;;;6186447;23;20020;-70
2023/02/11 10:37:43;;;;;;;32.55;16.73;;;8.80;99.90;;;;;;6188256;23;20019;-71
2023/02/11 10:40:23;;;;;;;27.38;16.67;;;8.80;99.90;;;;;;6186202;23;20017;-70
2023/02/11 10:42:55;;;;;;;24.58;14.93;;;8.90;99.90;;;;;;6186091;23;20446;-72
2023/02/11 10:45:29;;;;;;;24.27;15.45;;;8.80;99.90;;;;;;6186216;23;20017;-76
2023/02/11 10:47:55;;;;;;;23.95;15.25;;;8.90;99.90;;;;;;6186063;23;20466;-70
2023/02/11 10:50:23;;;;;;;31.55;15.45;;;9.00;99.90;;;;;;6187960;23;20020;-70
2023/02/11 10:52:48;;;;;;;27.65;16.05;;;9.00;99.90;;;;;;6186201;23;20028;-71
2023/02/11 10:55:20;;;;;;;25.60;14.82;;;9.10;99.90;;;;;;6186104;23;20087;-72
2023/02/11 10:57:59;;;;;;;24.35;14.23;;;9.00;99.90;;;;;;6187525;23;20016;-71
2023/02/11 11:00:39;;;;;;;24.60;13.63;;;9.20;99.90;;;;;;6187752;23;20017;-70
2023/02/11 11:03:21;;;;;;;;;;;9.20;99.90;;;;;;6188130;23;20021;-70
2023/02/11 11:05:50;;;;;;;23.38;13.65;;;9.20;99.90;;;;;;6187955;23;19912;-70
2023/02/11 11:08:17;;;;;;;23.08;13.52;;;9.30;99.90;;;;;;6185932;23;20013;-70
2023/02/11 11:10:44;;;;;;;24.17;13.00;;;9.30;99.90;;;;;;6187893;23;20016;-70
2023/02/11 11:13:23;;;;;;;22.27;12.43;;;9.30;99.90;;;;;;6187746;23;20028;-70
2023/02/11 11:16:08;;;;;;;23.08;12.82;;;9.30;99.90;;;;;;6187419;23;20009;-70
2023/02/11 11:18:34;;;;;;;22.95;12.45;;;9.40;99.90;;;;;;6187401;23;20438;-70
2023/02/11 11:21:06;;;;;;;21.50;11.63;;;9.40;99.90;;;;;;6188610;23;20064;-70
2023/02/11 11:23:35;;;;;;;21.45;12.20;;;9.40;99.90;;;;;;6187716;23;20088;-70
2023/02/11 11:26:05;;;;;;;21.30;12.60;;;9.40;99.90;;;;;;6188684;23;20058;-71
2023/02/11 11:28:49;;;;;;;;;;;9.50;99.90;;;;;;6185994;23;20017;-70
2023/02/11 11:31:26;;;;;;;17.85;10.75;;;9.40;99.90;;;;;;6187638;23;19987;-70
2023/02/11 11:33:54;;;;;;;18.42;11.23;;;9.50;99.90;;;;;;6187633;23;20016;-70
2023/02/11 11:36:22;;;;;;;20.60;11.10;;;9.50;99.90;;;;;;6188218;23;20024;-70
2023/02/11 11:38:55;;;;;;;17.10;9.73;;;9.40;99.90;;;;;;6185690;23;20068;-70
2023/02/11 11:41:29;;;;;;;18.55;10.63;;;9.50;99.90;;;;;;6187902;23;20039;-70
2023/02/11 11:43:58;;;;;;;19.67;11.10;;;9.40;99.90;;;;;;6185742;23;20323;-71
2023/02/11 11:46:28;;;;;;;20.67;11.20;;;9.40;99.90;;;;;;6187562;23;20330;-70
2023/02/11 11:48:57;;;;;;;;;;;9.40;99.90;;;;;;6186049;23;20024;-70
2023/02/11 11:51:24;;;;;;;22.83;10.45;;;9.40;99.90;;;;;;6187605;23;19962;-70
2023/02/11 11:54:03;;;;;;;24.92;11.20;;;9.40;99.90;;;;;;6160888;23;20442;-70
2023/02/11 11:56:32;;;;;;;22.77;10.38;;;9.50;99.90;;;;;;6185571;23;20017;-70
2023/02/11 11:59:02;;;;;;;18.20;10.43;;;9.50;99.90;;;;;;6187330;23;20019;-70
2023/02/11 12:01:40;;;;;;;20.60;10.30;;;9.50;99.90;;;;;;6186869;23;20477;-70
2023/02/11 12:04:29;;;;;;;22.52;9.25;;;9.60;99.90;;;;;;6185466;23;20017;-71
2023/02/11 12:07:13;;;;;;;18.63;8.93;;;9.50;99.90;;;;;;6160574;23;20097;-70
2023/02/11 12:09:44;;;;;;;17.33;9.77;;;9.60;99.90;;;;;;6185474;23;20017;-70
2023/02/11 12:12:25;;;;;;;21.48;10.02;;;9.60;99.90;;;;;;6185282;23;20088;-70
2023/02/11 12:15:00;;;;;;;21.95;9.50;;;9.60;99.90;;;;;;6185406;23;20017;-70
2023/02/11 12:17:31;;;;;;;20.95;9.02;;;9.60;99.90;;;;;;6186927;23;20084;-70
2023/02/11 12:20:16;;;;;;;17.08;8.57;;;9.60;99.90;;;;;;6185391;23;20021;-70
2023/02/11 12:23:03;;;;;;;17.60;9.40;;;9.50;99.90;;;;;;6185405;23;20017;-70
2023/02/11 12:26:11;;;;;;;21.30;8.25;;;9.60;99.90;;;;;;6185451;23;20017;-70
2023/02/11 12:28:44;;;;;;;20.85;9.02;;;9.60;99.90;;;;;;6160597;23;20046;-70
2023/02/11 12:31:27;;;;;;;19.00;8.30;;;9.60;99.90;;;;;;6187277;23;20013;-70
2023/02/11 12:34:24;;;;;;;22.52;8.10;;;9.50;99.90;;;;;;6185446;23;20026;-70
2023/02/11 12:37:05;;;;;;;19.30;8.48;;;9.50;99.90;;;;;;6187638;23;20012;-70
2023/02/11 12:39:39;;;;;;;16.83;8.63;;;9.60;99.90;;;;;;6187176;23;20047;-70
2023/02/11 12:45:10;;;;;;;17.05;7.80;;;9.60;99.90;;;;;;6185257;23;20017;-70
2023/02/11 12:47:57;;;;;;;15.68;7.40;;;9.60;99.90;;;;;;6185151;23;20096;-70
2023/02/11 12:50:54;;;;;;;15.68;7.50;;;9.60;99.90;;;;;;6186987;23;20093;-70
2023/02/11 12:53:38;;;;;;;14.57;7.70;;;9.70;99.90;;;;;;6185143;23;20016;-70
2023/02/11 12:56:25;;;;;;;15.10;7.18;;;9.70;99.90;;;;;;6186889;23;20009;-70
2023/02/11 12:58:56;;;;;;;14.13;7.03;;;9.70;99.90;;;;;;6185190;23;20116;-70
2023/02/11 13:01:26;;;;;;;17.05;6.93;;;9.70;99.90;;;;;;6185061;23;20064;-70
2023/02/11 13:04:08;;;;;;;16.52;7.40;;;9.70;99.90;;;;;;6187373;23;20020;-70